Airfield :
LOGIN :

Register | Disclaimer

   EN    FR    IT 

 










Legend :    VFR   Marginal VFR   IFR   Intensive IFR   Very Intensive IFR
Visi :
Ceiling :
>= 8 km
>= 3000ft
5 to 8 km
1000 to 3000 ft
1500m to 5 km
500 to 1000 ft
800 to 1500m
200 to 500 ft
< 800m
< 200 ft
Symbols :   Thunderstorms  Fog  Heavy snow  Heavy precipitations  Wind > 20 kt
SIGMETs :     Misc.  Thunderstorms  Icing  Turbulence  Mountain Waves  Volcanic Ashes






- Airport Elevation : 160 ft
- IATA code : LRT


LFRH - Lorient Lann Bihoue

CURRENT METAR :
  • 012230Z AUTO 00000KT CAVOK 12/10 Q1022 NOSIG

EXPIRED METARs :
  • 011630Z AUTO 24009KT CAVOK 18/10 Q1021 NOSIG
  • 012200Z AUTO 00000KT CAVOK 13/10 Q1022 NOSIG
  • 012130Z AUTO 23002KT CAVOK 13/10 Q1022 NOSIG
  • 012100Z AUTO 28001KT CAVOK 14/10 Q1022 NOSIG
  • 012030Z AUTO 26003KT CAVOK 14/11 Q1022 NOSIG
  • 010530Z AUTO 06002KT CAVOK 10/09 Q1020 NOSIG
  • 012000Z AUTO 26003KT CAVOK 16/11 Q1022 NOSIG

TAF TAF LFRH
Valid from the 01 at 18:00 until the 02 at 18:00 UTC


011700Z 0118/0218 24010KT 9999 SCT040
BECMG 0121/0123 VRB02KT
PROB40 0202/0206 3000 BR
BECMG 0210/0212 24010KT



MET'MAP, your aeronautical weather chart ! - Copyright ORBIFLY December 2007 - Disclaimer

ORBIFLY MET'MAP TEAM :

Programming & Development : Alexandra Zaïnal
Original concept : Baudouin d'Aumeries
Technical & hardware support : Manuel Goepfert
Assistance : Marc-Olivier Méhu




SOURCES & CREDITS :

   NOAA